KCSQ/CSQ METAR and TAF weather

Enter ICAO airport designator
Station Type Date Time Source
KCSQ METAR 2019/02/21 12:15 UTC NOAA

KCSQ 211215Z AUTO 27007KT 8SM CLR M13/M13 A3011 RMK AO2


Station Type Date Time Source
KCSQ Decoded METAR 2019/02/21 12:15 UTC NOAA

Creston, IA, United States (KCSQ) 41-01N 094-22W
Feb 21, 2019 - 07:15 AM EST / 2019.02.21 1215 UTC
Wind: from the W (270 degrees) at 8 MPH (7 KT):0
Visibility: 8 mile(s):0
Sky conditions: clear
Temperature: 8 F (-13 C)
Windchill: -4 F (-20 C):1
Dew Point: 8 F (-13 C)
Relative Humidity: 100%
Pressure (altimeter): 30.11 in. Hg (1019 hPa)
ob: KCSQ 211215Z AUTO 27007KT 8SM CLR M13/M13 A3011 RMK AO2
cycle: 12

Station Type Date Time Source
KCSQ TAF UTC NOAA

Error!


Example: see airport list